Time,TemperatureF,DewpointF,PressureIn,WindDirection,WindDirectionDegrees,WindSpeedMPH,WindSpeedGustMPH,Humidity,HourlyPrecipIn,Conditions,Clouds,dailyrainin,SoftwareType,DateUTC
2013-12-25 00:00:00,36.5,34.7,30.34,West,276,0.0,0.0,93,0.00,CLR,,0.00,WeatherDisplay:10.37,2013-12-25 05:00:00,
2013-12-25 00:15:00,36.9,34.8,30.34,West,276,0.0,0.0,92,0.00,CLR,,0.00,WeatherDisplay:10.37,2013-12-25 05:15:00,
2013-12-25 00:30:00,37.3,34.9,30.34,West,276,0.0,0.0,91,0.00,CLR,,0.00,WeatherDisplay:10.37,2013-12-25 05:30:00,
2013-12-25 00:45:00,37.9,34.9,30.33,West,276,0.0,1.0,89,0.00,CLR,,0.00,WeatherDisplay:10.37,2013-12-25 05:45:00,
2013-12-25 01:00:00,38.2,34.7,30.32,West,276,0.0,4.0,87,0.00,CLR,,0.00,WeatherDisplay:10.37,2013-12-25 06:00:00,
2013-12-25 01:15:00,38.2,34.7,30.32,West,277,0.0,2.0,87,0.00,CLR,,0.00,WeatherDisplay:10.37,2013-12-25 06:15:00,
2013-12-25 01:30:00,37.9,34.4,30.32,West,277,0.0,0.0,87,0.00,CLR,,0.00,WeatherDisplay:10.37,2013-12-25 06:30:00,
2013-12-25 01:45:00,37.7,34.5,30.32,West,277,0.0,0.0,88,0.00,CLR,,0.00,WeatherDisplay:10.37,2013-12-25 06:45:00,
2013-12-25 02:00:00,37.9,34.4,30.32,West,277,0.0,2.0,87,0.00,CLR,,0.00,WeatherDisplay:10.37,2013-12-25 07:00:00,
2013-12-25 02:15:00,38.2,34.1,30.31,NW,309,0.0,4.0,85,0.00,CLR,,0.00,WeatherDisplay:10.37,2013-12-25 07:15:00,
2013-12-25 02:30:00,38.4,33.9,30.31,NW,315,0.0,5.0,84,0.00,CLR,,0.00,WeatherDisplay:10.37,2013-12-25 07:30:00,
2013-12-25 02:45:00,38.4,34.0,30.31,SE,143,0.0,1.0,84,0.00,CLR,,0.00,WeatherDisplay:10.37,2013-12-25 07:45:00,
2013-12-25 03:00:00,38.1,33.7,30.31,SE,143,0.0,0.0,84,0.00,CLR,,0.00,WeatherDisplay:10.37,2013-12-25 08:00:00,
2013-12-25 03:15:00,38.0,33.6,30.30,NE,55,0.0,2.0,84,0.00,CLR,,0.00,WeatherDisplay:10.37,2013-12-25 08:15:00,
2013-12-25 03:30:00,38.0,33.6,30.30,West,278,0.0,2.0,84,0.00,CLR,,0.00,WeatherDisplay:10.37,2013-12-25 08:30:00,
2013-12-25 03:45:00,37.8,33.7,30.30,NE,54,0.0,2.0,85,0.00,CLR,,0.00,WeatherDisplay:10.37,2013-12-25 08:45:00,
2013-12-25 04:00:00,37.6,33.5,30.30,NE,47,0.0,0.0,85,0.00,CLR,,0.00,WeatherDisplay:10.37,2013-12-25 09:00:00,
2013-12-25 04:15:00,37.6,33.5,30.30,NW,312,1.0,4.0,85,0.00,CLR,,0.00,WeatherDisplay:10.37,2013-12-25 09:15:00,
2013-12-25 04:30:00,37.7,33.6,30.30,WNW,284,0.0,2.0,85,0.00,CLR,,0.00,WeatherDisplay:10.37,2013-12-25 09:30:00,
2013-12-25 04:45:00,37.9,33.8,30.30,WNW,291,0.0,3.0,85,0.00,CLR,,0.00,WeatherDisplay:10.37,2013-12-25 09:45:00,
2013-12-25 05:00:00,37.9,33.8,30.29,WNW,285,0.0,3.0,85,0.00,CLR,,0.00,WeatherDisplay:10.37,2013-12-25 10:00:00,
2013-12-25 05:15:00,38.0,33.9,30.29,WNW,290,1.0,3.0,85,0.00,CLR,,0.00,WeatherDisplay:10.37,2013-12-25 10:15:00,
2013-12-25 05:30:00,38.4,34.6,30.29,West,274,0.0,3.0,86,0.00,CLR,,0.00,WeatherDisplay:10.37,2013-12-25 10:30:00,
2013-12-25 05:45:00,38.3,34.8,30.29,West,275,0.0,1.0,87,0.00,CLR,,0.00,WeatherDisplay:10.37,2013-12-25 10:45:00,
2013-12-25 06:00:00,38.0,34.5,30.29,West,272,0.0,2.0,87,0.00,CLR,,0.00,WeatherDisplay:10.37,2013-12-25 11:00:00,
2013-12-25 06:15:00,37.8,34.6,30.30,West,272,0.0,2.0,88,0.00,CLR,,0.00,WeatherDisplay:10.37,2013-12-25 11:15:00,
2013-12-25 06:30:00,37.8,34.6,30.30,WNW,300,0.0,3.0,88,0.00,CLR,,0.00,WeatherDisplay:10.37,2013-12-25 11:30:00,
2013-12-25 06:45:00,37.8,34.8,30.30,NW,305,0.0,2.0,89,0.00,CLR,,0.00,WeatherDisplay:10.37,2013-12-25 11:45:00,
2013-12-25 07:00:00,37.8,34.8,30.30,WNW,301,0.0,3.0,89,0.00,CLR,,0.00,WeatherDisplay:10.37,2013-12-25 12:00:00,
2013-12-25 07:15:00,37.8,35.1,30.30,WNW,303,1.0,4.0,90,0.00,CLR,,0.00,WeatherDisplay:10.37,2013-12-25 12:15:00,
2013-12-25 07:30:00,37.8,35.2,30.31,WNW,299,0.0,3.0,90,0.00,CLR,,0.00,WeatherDisplay:10.37,2013-12-25 12:30:00,
2013-12-25 07:45:00,38.1,35.4,30.31,NW,310,0.0,4.0,90,0.00,CLR,,0.00,WeatherDisplay:10.37,2013-12-25 12:45:00,
2013-12-25 08:00:00,38.9,36.2,30.32,ENE,62,0.0,5.0,90,0.00,CLR,,0.00,WeatherDisplay:10.37,2013-12-25 13:00:00,
2013-12-25 08:15:00,39.8,37.1,30.32,NNW,328,0.0,4.0,90,0.00,CLR,,0.00,WeatherDisplay:10.37,2013-12-25 13:15:00,
2013-12-25 08:30:00,40.7,38.0,30.33,WNW,287,0.0,5.0,90,0.00,CLR,,0.00,WeatherDisplay:10.37,2013-12-25 13:30:00,
2013-12-25 08:45:00,42.0,39.0,30.33,NNE,24,0.0,4.0,89,0.00,CLR,,0.00,WeatherDisplay:10.37,2013-12-25 13:45:00,
2013-12-25 09:00:00,44.2,40.9,30.33,North,349,1.0,4.0,88,0.00,CLR,,0.00,WeatherDisplay:10.37,2013-12-25 14:00:00,
2013-12-25 09:15:00,45.9,42.2,30.34,NW,324,0.0,3.0,87,0.00,CLR,,0.00,WeatherDisplay:10.37,2013-12-25 14:15:00,
2013-12-25 09:30:00,47.9,43.9,30.33,North,358,2.0,6.0,86,0.00,CLR,,0.00,WeatherDisplay:10.37,2013-12-25 14:30:00,
2013-12-25 09:45:00,49.8,45.4,30.34,NNE,17,3.0,6.0,85,0.00,CLR,,0.00,WeatherDisplay:10.37,2013-12-25 14:45:00,
2013-12-25 10:00:00,51.9,46.9,30.34,ENE,66,1.0,7.0,83,0.00,CLR,,0.00,WeatherDisplay:10.37,2013-12-25 15:00:00,
2013-12-25 10:15:00,54.3,48.9,30.34,ENE,59,1.0,10.0,82,0.00,CLR,,0.00,WeatherDisplay:10.37,2013-12-25 15:15:00,
2013-12-25 10:30:00,56.3,50.3,30.34,NE,44,5.0,9.0,80,0.00,CLR,,0.00,WeatherDisplay:10.37,2013-12-25 15:30:00,
2013-12-25 10:45:00,57.5,51.1,30.33,NE,55,6.0,10.0,79,0.00,CLR,,0.00,WeatherDisplay:10.37,2013-12-25 15:45:00,
2013-12-25 11:00:00,59.4,52.6,30.33,ENE,75,5.0,12.0,78,0.00,CLR,,0.00,WeatherDisplay:10.37,2013-12-25 16:00:00,
2013-12-25 11:15:00,60.0,53.1,30.33,NNE,24,2.0,7.0,78,0.00,CLR,,0.00,WeatherDisplay:10.37,2013-12-25 16:15:00,
2013-12-25 11:30:00,61.4,54.1,30.33,NE,48,3.0,12.0,77,0.00,CLR,,0.00,WeatherDisplay:10.37,2013-12-25 16:30:00,
2013-12-25 11:45:00,62.6,55.2,30.32,NNE,29,2.0,10.0,77,0.00,CLR,,0.00,WeatherDisplay:10.37,2013-12-25 16:45:00,
2013-12-25 12:00:00,63.7,56.0,30.31,NE,50,5.0,9.0,76,0.00,CLR,,0.00,WeatherDisplay:10.37,2013-12-25 17:00:00,
2013-12-25 12:15:00,64.6,56.1,30.30,NE,46,5.0,10.0,74,0.00,CLR,,0.00,WeatherDisplay:10.37,2013-12-25 17:15:00,
2013-12-25 12:30:00,64.0,55.9,30.29,NE,43,3.0,9.0,75,0.00,CLR,,0.00,WeatherDisplay:10.37,2013-12-25 17:30:00,
2013-12-25 12:45:00,64.7,57.0,30.29,NNE,32,3.0,9.0,76,0.00,CLR,,0.00,WeatherDisplay:10.37,2013-12-25 17:45:00,
2013-12-25 13:00:00,65.1,57.3,30.28,North,9,3.0,13.0,76,0.00,CLR,,0.00,WeatherDisplay:10.37,2013-12-25 18:00:00,
2013-12-25 13:15:00,65.3,57.5,30.28,NE,46,6.0,10.0,76,0.00,CLR,,0.00,WeatherDisplay:10.37,2013-12-25 18:15:00,
2013-12-25 13:30:00,65.4,56.9,30.27,ENE,68,7.0,12.0,74,0.00,CLR,,0.00,WeatherDisplay:10.37,2013-12-25 18:30:00,
2013-12-25 13:45:00,65.3,57.5,30.26,ENE,57,6.0,12.0,76,0.00,CLR,,0.00,WeatherDisplay:10.37,2013-12-25 18:45:00,
2013-12-25 14:00:00,64.5,56.8,30.27,ENE,58,5.0,13.0,76,0.00,CLR,,0.00,WeatherDisplay:10.37,2013-12-25 19:00:00,
2013-12-25 14:15:00,63.4,56.8,30.27,NNE,22,5.0,15.0,79,0.00,CLR,,0.00,WeatherDisplay:10.37,2013-12-25 19:15:00,
2013-12-25 14:30:00,63.0,56.0,30.27,NE,42,5.0,15.0,78,0.00,CLR,,0.00,WeatherDisplay:10.37,2013-12-25 19:30:00,
2013-12-25 14:45:00,61.4,55.5,30.27,NE,49,3.0,14.0,81,0.00,CLR,,0.00,WeatherDisplay:10.37,2013-12-25 19:45:00,
2013-12-25 15:00:00,60.3,55.5,30.27,ESE,102,0.0,12.0,84,0.00,CLR,,0.00,WeatherDisplay:10.37,2013-12-25 20:00:00,
2013-12-25 15:15:00,59.1,54.6,30.27,ENE,66,6.0,12.0,85,0.00,CLR,,0.00,WeatherDisplay:10.37,2013-12-25 20:15:00,
2013-12-25 15:30:00,58.5,54.3,30.27,NE,37,6.0,12.0,86,0.00,CLR,,0.00,WeatherDisplay:10.37,2013-12-25 20:30:00,
2013-12-25 15:45:00,58.3,54.4,30.27,NE,34,3.0,9.0,87,0.00,CLR,,0.00,WeatherDisplay:10.37,2013-12-25 20:45:00,
2013-12-25 16:00:00,57.7,53.8,30.28,NNE,33,5.0,13.0,87,0.00,CLR,,0.00,WeatherDisplay:10.37,2013-12-25 21:00:00,
2013-12-25 16:15:00,57.3,53.8,30.27,NNE,28,5.0,10.0,88,0.00,CLR,,0.00,WeatherDisplay:10.37,2013-12-25 21:15:00,
2013-12-25 16:30:00,56.8,53.6,30.27,NNE,33,1.0,9.0,89,0.00,CLR,,0.00,WeatherDisplay:10.37,2013-12-25 21:30:00,
2013-12-25 16:45:00,56.5,53.3,30.27,ENE,58,1.0,9.0,89,0.00,CLR,,0.00,WeatherDisplay:10.37,2013-12-25 21:45:00,
2013-12-25 17:00:00,56.3,53.4,30.28,NNE,22,2.0,10.0,90,0.00,CLR,,0.00,WeatherDisplay:10.37,2013-12-25 22:00:00,
2013-12-25 17:15:00,56.1,53.5,30.28,NNE,23,3.0,8.0,91,0.00,CLR,,0.00,WeatherDisplay:10.37,2013-12-25 22:15:00,
2013-12-25 17:30:00,55.9,53.3,30.29,NNE,27,3.0,8.0,91,0.00,CLR,,0.00,WeatherDisplay:10.37,2013-12-25 22:30:00,
2013-12-25 17:45:00,55.7,53.4,30.29,NNE,24,2.0,8.0,92,0.00,CLR,,0.00,WeatherDisplay:10.37,2013-12-25 22:45:00,
2013-12-25 18:00:00,55.6,53.0,30.29,North,7,1.0,10.0,91,0.00,CLR,,0.00,WeatherDisplay:10.37,2013-12-25 23:00:00,
2013-12-25 18:15:00,55.3,52.7,30.29,NE,34,2.0,5.0,91,0.00,CLR,,0.00,WeatherDisplay:10.37,2013-12-25 23:15:00,
2013-12-25 18:30:00,55.0,52.7,30.29,NNE,25,1.0,8.0,92,0.00,CLR,,0.00,WeatherDisplay:10.37,2013-12-25 23:30:00,
2013-12-25 18:45:00,54.8,52.5,30.28,NE,39,1.0,9.0,92,0.00,CLR,,0.00,WeatherDisplay:10.37,2013-12-25 23:45:00,
2013-12-25 19:00:00,54.7,52.4,30.28,NNE,26,2.0,8.0,92,0.00,CLR,,0.00,WeatherDisplay:10.37,2013-12-26 00:00:00,
2013-12-25 19:15:00,54.6,52.6,30.28,NE,45,1.0,5.0,93,0.00,CLR,,0.00,WeatherDisplay:10.37,2013-12-26 00:15:00,
2013-12-25 19:30:00,54.5,52.5,30.28,NNE,12,2.0,7.0,93,0.00,CLR,,0.00,WeatherDisplay:10.37,2013-12-26 00:30:00,
2013-12-25 19:45:00,54.5,52.5,30.29,NNE,18,2.0,6.0,93,0.00,CLR,,0.00,WeatherDisplay:10.37,2013-12-26 00:45:00,
2013-12-25 20:00:00,54.4,52.4,30.29,NNE,22,2.0,6.0,93,0.00,CLR,,0.00,WeatherDisplay:10.37,2013-12-26 01:00:00,
2013-12-25 20:15:00,54.3,52.3,30.29,NNE,26,1.0,6.0,93,0.00,CLR,,0.00,WeatherDisplay:10.37,2013-12-26 01:15:00,
2013-12-25 20:30:00,54.2,52.3,30.30,NNE,30,2.0,6.0,93,0.00,CLR,,0.00,WeatherDisplay:10.37,2013-12-26 01:30:00,
2013-12-25 20:45:00,54.2,52.2,30.29,NE,39,1.0,5.0,93,0.00,CLR,,0.00,WeatherDisplay:10.37,2013-12-26 01:45:00,
2013-12-25 21:00:00,54.1,52.4,30.29,NE,34,2.0,6.0,94,0.00,CLR,,0.00,WeatherDisplay:10.37,2013-12-26 02:00:00,
2013-12-25 21:15:00,54.0,52.3,30.29,NNE,16,2.0,9.0,94,0.00,CLR,,0.00,WeatherDisplay:10.37,2013-12-26 02:15:00,
2013-12-25 21:30:00,54.0,52.3,30.29,NNW,341,0.0,8.0,94,0.00,CLR,,0.00,WeatherDisplay:10.37,2013-12-26 02:30:00,
2013-12-25 21:45:00,53.9,52.2,30.30,NNW,331,2.0,4.0,94,0.00,CLR,,0.00,WeatherDisplay:10.37,2013-12-26 02:45:00,
2013-12-25 22:00:00,53.7,52.0,30.29,North,10,1.0,8.0,94,0.00,CLR,,0.00,WeatherDisplay:10.37,2013-12-26 03:00:00,
2013-12-25 22:15:00,53.6,51.9,30.30,North,8,1.0,5.0,94,0.00,CLR,,0.00,WeatherDisplay:10.37,2013-12-26 03:15:00,
2013-12-25 22:30:00,53.5,51.8,30.29,NW,317,1.0,5.0,94,0.00,CLR,,0.00,WeatherDisplay:10.37,2013-12-26 03:30:00,
2013-12-25 22:45:00,53.3,51.6,30.29,WNW,303,2.0,7.0,94,0.00,CLR,,0.00,WeatherDisplay:10.37,2013-12-26 03:45:00,
2013-12-25 23:00:00,53.0,51.3,30.30,West,274,1.0,5.0,94,0.00,CLR,,0.00,WeatherDisplay:10.37,2013-12-26 04:00:00,
2013-12-25 23:15:00,52.8,51.1,30.29,NW,318,2.0,6.0,94,0.00,CLR,,0.00,WeatherDisplay:10.37,2013-12-26 04:15:00,
2013-12-25 23:30:00,52.6,50.7,30.29,West,272,1.0,4.0,93,0.00,CLR,,0.00,WeatherDisplay:10.37,2013-12-26 04:30:00,
2013-12-25 23:45:00,52.5,50.5,30.29,West,259,1.0,4.0,93,0.00,CLR,,0.00,WeatherDisplay:10.37,2013-12-26 04:45:00,